B21 EFKU-EFKU

Flight info

Callsign B21
Flight time 0h 10m
Altitude 3000
Route TC
Aircraft HAWK/M-SDGIRY/C

Departure

Time 2026-04-12 11:22
Airport Kuopio Airport (EFKU)

Arrival

Time 2026-04-12 11:32
Airport Kuopio Airport (EFKU)
Time Latitude Longitude Altitude Speed Heading
2026-04-12 11:06 63.00272 27.79162 325 ft 0 kts 68°
2026-04-12 11:09 63.00275 27.79176 324 ft 6 kts 68°
2026-04-12 11:09 63.00289 27.79195 324 ft 15 kts
2026-04-12 11:10 63.00419 27.79100 323 ft 24 kts 337°
2026-04-12 11:10 63.00525 27.79164 322 ft 17 kts 36°
2026-04-12 11:10 63.00627 27.79324 318 ft 19 kts 37°
2026-04-12 11:10 63.00750 27.79293 317 ft 20 kts 336°
2026-04-12 11:11 63.00885 27.79171 318 ft 21 kts 339°
2026-04-12 11:11 63.01026 27.79042 318 ft 22 kts 339°
2026-04-12 11:11 63.01178 27.78925 317 ft 24 kts 336°
2026-04-12 11:11 63.01340 27.78778 315 ft 26 kts 337°
2026-04-12 11:12 63.01515 27.78616 312 ft 28 kts 340°
2026-04-12 11:12 63.01682 27.78458 309 ft 17 kts 338°
2026-04-12 11:12 63.01743 27.78460 308 ft 0 kts 26°
2026-04-12 11:17 63.01746 27.78464 308 ft 4 kts 26°
2026-04-12 11:18 63.01749 27.78795 310 ft 47 kts 146°
2026-04-12 11:18 63.01131 27.79414 318 ft 133 kts 178°
2026-04-12 11:18 63.00634 27.79737 312 ft 32 kts 265°
2026-04-12 11:18 63.00614 27.79619 314 ft 5 kts 273°
2026-04-12 11:19 63.00677 27.79355 318 ft 20 kts 329°
2026-04-12 11:19 63.00740 27.79300 317 ft 0 kts 334°
2026-04-12 11:19 63.00772 27.79268 317 ft 12 kts 336°
2026-04-12 11:20 63.00894 27.79158 318 ft 23 kts 337°
2026-04-12 11:20 63.01008 27.79048 318 ft 14 kts 337°
2026-04-12 11:20 63.01081 27.79126 318 ft 13 kts 69°
2026-04-12 11:20 63.01114 27.79314 318 ft 12 kts 78°
2026-04-12 11:21 63.01068 27.79451 318 ft 12 kts 157°
2026-04-12 11:21 63.00803 27.79695 314 ft 94 kts 157°
2026-04-12 11:21 62.99928 27.80507 319 ft 173 kts 155°
2026-04-12 11:21 62.98656 27.81706 782 ft 222 kts 155°
2026-04-12 11:22 62.97821 27.84415 1620 ft 243 kts 94°
2026-04-12 11:22 62.98758 27.87639 1964 ft 291 kts 21°
2026-04-12 11:22 63.00850 27.86988 2338 ft 327 kts 347°
2026-04-12 11:22 63.02992 27.85807 2399 ft 277 kts 347°
2026-04-12 11:23 63.04688 27.84801 2195 ft 240 kts 346°
2026-04-12 11:23 63.06244 27.83836 2132 ft 226 kts 345°
2026-04-12 11:23 63.07725 27.82847 2097 ft 222 kts 344°
2026-04-12 11:23 63.09163 27.81833 2063 ft 220 kts 343°
2026-04-12 11:24 63.10303 27.79604 2077 ft 244 kts 281°
2026-04-12 11:24 63.09845 27.76112 2081 ft 235 kts 230°
2026-04-12 11:24 63.08622 27.73741 2003 ft 240 kts 208°
2026-04-12 11:24 63.07103 27.73411 2092 ft 218 kts 159°
2026-04-12 11:25 63.05761 27.74898 1593 ft 220 kts 150°
2026-04-12 11:25 63.04429 27.76421 1300 ft 205 kts 155°
2026-04-12 11:25 63.03228 27.77483 890 ft 177 kts 158°
2026-04-12 11:25 63.02127 27.78469 455 ft 164 kts 156°
2026-04-12 11:26 63.01156 27.79371 318 ft 133 kts 156°
2026-04-12 11:26 63.00170 27.80270 534 ft 174 kts 158°
2026-04-12 11:26 62.98918 27.81690 788 ft 221 kts 134°
2026-04-12 11:26 62.99329 27.84064 1705 ft 232 kts
2026-04-12 11:27 63.01027 27.83636 2532 ft 253 kts 353°
2026-04-12 11:27 63.02770 27.82987 3526 ft 274 kts 352°
2026-04-12 11:27 63.04530 27.82274 3586 ft 243 kts 350°
2026-04-12 11:27 63.06101 27.81376 3462 ft 231 kts 344°
2026-04-12 11:28 63.07583 27.80224 3554 ft 219 kts 341°
2026-04-12 11:28 63.09011 27.78958 3416 ft 219 kts 339°
2026-04-12 11:28 63.10287 27.77209 3450 ft 236 kts 299°
2026-04-12 11:28 63.09973 27.73646 3254 ft 274 kts 219°
2026-04-12 11:29 63.08246 27.72536 3010 ft 257 kts 168°
2026-04-12 11:29 63.06582 27.74009 2987 ft 257 kts 155°
2026-04-12 11:29 63.04975 27.75736 3026 ft 245 kts 153°
2026-04-12 11:29 63.03737 27.77039 2395 ft 190 kts 156°
2026-04-12 11:30 63.02585 27.78040 1045 ft 182 kts 157°
2026-04-12 11:30 63.01498 27.79048 326 ft 155 kts 156°
2026-04-12 11:30 63.00574 27.79915 310 ft 162 kts 158°
2026-04-12 11:30 62.99403 27.80978 897 ft 194 kts 157°
2026-04-12 11:31 62.98289 27.81939 2609 ft 174 kts 157°
2026-04-12 11:31 62.97262 27.82459 3245 ft 150 kts 188°
2026-04-12 11:31 62.96701 27.83655 2341 ft 164 kts 51°
2026-04-12 11:31 62.97696 27.83351 1510 ft 180 kts 321°
2026-04-12 11:32 62.98738 27.81650 758 ft 195 kts 334°
2026-04-12 11:32 62.99905 27.80526 322 ft 164 kts 340°
2026-04-12 11:32 63.00811 27.79690 314 ft 120 kts 341°
2026-04-12 11:32 63.01268 27.79268 318 ft 45 kts 338°
2026-04-12 11:33 63.01551 27.79004 314 ft 42 kts 337°
2026-04-12 11:33 63.01767 27.78772 310 ft 20 kts 355°
2026-04-12 11:33 63.01740 27.78831 310 ft 9 kts 164°
2026-04-12 11:33 63.01622 27.78938 313 ft 57 kts 159°
2026-04-12 11:34 63.00918 27.79581 316 ft 156 kts 157°
2026-04-12 11:34 62.99748 27.80681 593 ft 198 kts 156°
2026-04-12 11:34 62.99326 27.82761 1114 ft 220 kts 24°
2026-04-12 11:34 63.00963 27.82427 1352 ft 246 kts 346°
2026-04-12 11:35 63.02566 27.81248 1490 ft 247 kts 342°
2026-04-12 11:35 63.03602 27.79036 1696 ft 199 kts 260°
2026-04-12 11:35 63.02644 27.77995 1115 ft 186 kts 158°
2026-04-12 11:35 63.01501 27.79051 318 ft 165 kts 157°
2026-04-12 11:36 63.00600 27.79880 310 ft 137 kts 156°
2026-04-12 11:36 62.99516 27.80847 589 ft 186 kts 158°
2026-04-12 11:36 62.98286 27.81848 1823 ft 197 kts 158°
2026-04-12 11:36 62.97254 27.83133 3093 ft 151 kts 89°
2026-04-12 11:37 62.98006 27.83249 1617 ft 200 kts 315°
2026-04-12 11:37 62.99070 27.81303 709 ft 202 kts 336°
2026-04-12 11:37 63.00233 27.80225 306 ft 159 kts 339°
2026-04-12 11:37 63.01317 27.79240 671 ft 194 kts 340°
2026-04-12 11:38 63.02632 27.78058 1736 ft 216 kts 341°
2026-04-12 11:38 63.03577 27.76490 2744 ft 163 kts 231°
2026-04-12 11:38 63.02762 27.77405 1065 ft 188 kts 132°
2026-04-12 11:38 63.01734 27.78831 341 ft 168 kts 156°
2026-04-12 11:39 63.00724 27.79770 427 ft 170 kts 156°
2026-04-12 11:39 62.99600 27.80849 1489 ft 190 kts 156°
2026-04-12 11:39 62.98374 27.81878 2795 ft 191 kts 150°
2026-04-12 11:39 62.98603 27.83169 2172 ft 187 kts 328°
2026-04-12 11:40 62.99455 27.80931 559 ft 204 kts 338°
2026-04-12 11:40 63.00595 27.79886 310 ft 153 kts 339°
2026-04-12 11:40 63.01656 27.78892 880 ft 181 kts 339°
2026-04-12 11:40 63.02187 27.76626 1627 ft 212 kts 259°
2026-04-12 11:41 63.02142 27.73352 1827 ft 212 kts 284°
2026-04-12 11:41 63.03202 27.71650 1934 ft 223 kts 22°
2026-04-12 11:41 63.04319 27.73814 1723 ft 202 kts 61°
2026-04-12 11:41 63.04118 27.76524 1733 ft 208 kts 144°
2026-04-12 11:42 63.02801 27.77867 887 ft 211 kts 158°
2026-04-12 11:42 63.01583 27.78969 326 ft 168 kts 156°
2026-04-12 11:42 63.00554 27.79951 536 ft 172 kts 154°
2026-04-12 11:43 62.98386 27.81161 2989 ft 189 kts 216°
2026-04-12 11:43 62.98269 27.78480 3189 ft 218 kts 322°
2026-04-12 11:43 62.99606 27.76519 3137 ft 248 kts 328°
2026-04-12 11:43 63.01067 27.74356 3276 ft 252 kts 327°
2026-04-12 11:44 63.02517 27.72173 3351 ft 252 kts 328°
2026-04-12 11:44 63.03963 27.70070 3489 ft 249 kts 328°
2026-04-12 11:44 63.05410 27.67987 3626 ft 248 kts 329°
2026-04-12 11:44 63.06847 27.65947 3846 ft 241 kts 329°
2026-04-12 11:45 63.08227 27.64048 3934 ft 230 kts 330°
2026-04-12 11:45 63.09597 27.63063 3733 ft 225 kts 56°
2026-04-12 11:45 63.09571 27.66832 3337 ft 277 kts 100°
2026-04-12 11:45 63.09240 27.70763 3018 ft 242 kts 120°
2026-04-12 11:46 63.08053 27.73056 2420 ft 231 kts 153°
2026-04-12 11:46 63.06620 27.74430 1816 ft 223 kts 158°
2026-04-12 11:46 63.05199 27.75654 1252 ft 214 kts 158°
2026-04-12 11:46 63.03865 27.76860 810 ft 203 kts 157°
2026-04-12 11:47 63.02630 27.77989 522 ft 172 kts 156°
2026-04-12 11:47 63.01648 27.78910 330 ft 139 kts 156°
2026-04-12 11:47 63.00732 27.79766 523 ft 164 kts 156°
2026-04-12 11:47 62.99578 27.80784 1362 ft 200 kts 158°
2026-04-12 11:48 62.98228 27.81722 2550 ft 217 kts 164°
2026-04-12 11:48 62.98033 27.83419 1949 ft 207 kts 340°
2026-04-12 11:48 62.99050 27.81346 623 ft 202 kts 335°
2026-04-12 11:48 63.00187 27.80264 306 ft 155 kts 338°
2026-04-12 11:49 63.01282 27.79250 497 ft 185 kts 339°
2026-04-12 11:49 63.02480 27.78165 1547 ft 203 kts 340°
2026-04-12 11:49 63.03853 27.76973 2513 ft 231 kts 341°
2026-04-12 11:49 63.04529 27.77967 2357 ft 180 kts 172°
2026-04-12 11:50 63.03200 27.77772 1133 ft 199 kts 175°
2026-04-12 11:50 63.01998 27.78580 432 ft 171 kts 156°
2026-04-12 11:50 63.01045 27.79473 319 ft 141 kts 156°
2026-04-12 11:50 62.99996 27.80475 881 ft 186 kts 156°
2026-04-12 11:51 62.98737 27.81728 1662 ft 222 kts 150°
2026-04-12 11:51 62.98196 27.84671 2485 ft 250 kts 66°
2026-04-12 11:51 62.99905 27.85769 2163 ft 288 kts 341°
2026-04-12 11:51 63.01603 27.84421 2319 ft 242 kts 340°
2026-04-12 11:52 63.03049 27.83058 2407 ft 213 kts 316°
2026-04-12 11:52 63.03181 27.80086 1601 ft 225 kts 240°
2026-04-12 11:52 63.01942 27.78678 440 ft 202 kts 161°
2026-04-12 11:52 63.00835 27.79667 324 ft 160 kts 156°
2026-04-12 11:53 62.99667 27.80732 1032 ft 200 kts 155°
2026-04-12 11:53 62.98888 27.82582 1819 ft 207 kts 33°
2026-04-12 11:53 63.00413 27.82222 1753 ft 224 kts 347°
2026-04-12 11:53 63.01820 27.81248 1641 ft 200 kts 342°
2026-04-12 11:54 63.02724 27.79597 1470 ft 161 kts 259°
2026-04-12 11:54 63.01928 27.78663 494 ft 165 kts 159°
2026-04-12 11:54 63.00987 27.79521 317 ft 130 kts 156°
2026-04-12 11:54 63.00044 27.80412 949 ft 168 kts 155°
2026-04-12 11:55 62.98972 27.81561 2085 ft 185 kts 136°
2026-04-12 11:55 62.98916 27.84152 2660 ft 207 kts 37°
2026-04-12 11:55 63.00408 27.83874 2157 ft 240 kts 344°
2026-04-12 11:55 63.02039 27.82668 2133 ft 252 kts 342°
2026-04-12 11:56 63.03588 27.81015 2354 ft 223 kts 311°
2026-04-12 11:56 63.03665 27.78405 1642 ft 176 kts 224°
2026-04-12 11:56 63.02625 27.77991 805 ft 160 kts 155°
2026-04-12 11:56 63.01659 27.78905 320 ft 143 kts 156°
2026-04-12 11:57 63.00795 27.79678 729 ft 143 kts 159°
2026-04-12 11:57 62.99700 27.80535 1389 ft 193 kts 161°
2026-04-12 11:57 62.98263 27.80877 2067 ft 226 kts 195°
2026-04-12 11:57 62.97788 27.82557 1553 ft 196 kts 28°
2026-04-12 11:58 62.98906 27.81496 661 ft 182 kts 333°
2026-04-12 11:58 62.99960 27.80475 308 ft 144 kts 339°
2026-04-12 11:58 63.00977 27.79586 678 ft 179 kts 343°
2026-04-12 11:58 63.01958 27.77624 1264 ft 227 kts 285°
2026-04-12 11:59 63.01936 27.74011 1607 ft 240 kts 262°
2026-04-12 11:59 63.01931 27.70497 1770 ft 240 kts 300°
2026-04-12 11:59 63.03310 27.70797 1563 ft 254 kts 54°
2026-04-12 11:59 63.04252 27.73610 1686 ft 211 kts 62°
2026-04-12 12:00 63.03969 27.76370 1338 ft 221 kts 137°
2026-04-12 12:00 63.02702 27.77963 757 ft 203 kts 157°
2026-04-12 12:00 63.01535 27.79015 324 ft 160 kts 156°
2026-04-12 12:00 63.00527 27.79957 352 ft 181 kts 156°
2026-04-12 12:01 62.99417 27.80975 484 ft 168 kts 156°
2026-04-12 12:01 62.99382 27.82802 1481 ft 177 kts 34°
2026-04-12 12:01 63.00770 27.82594 1560 ft 215 kts 345°
2026-04-12 12:01 63.02082 27.81668 1633 ft 180 kts 343°
2026-04-12 12:02 63.03009 27.80292 1739 ft 158 kts 286°
2026-04-12 12:02 63.02857 27.78108 1066 ft 163 kts 200°
2026-04-12 12:02 63.01895 27.78687 550 ft 152 kts 156°
2026-04-12 12:02 63.00949 27.79560 318 ft 136 kts 157°
2026-04-12 12:03 62.99983 27.80402 1132 ft 163 kts 158°
2026-04-12 12:03 62.98908 27.81195 2331 ft 176 kts 158°
2026-04-12 12:03 62.98168 27.83124 3331 ft 195 kts 96°
2026-04-12 12:03 62.98836 27.85754 3391 ft 212 kts 21°
2026-04-12 12:04 63.00269 27.85253 2851 ft 234 kts 333°
2026-04-12 12:04 63.01712 27.83566 2682 ft 230 kts 333°
2026-04-12 12:04 63.03095 27.81860 2708 ft 229 kts 330°
2026-04-12 12:04 63.04221 27.79730 2818 ft 196 kts 296°
2026-04-12 12:05 63.03835 27.77466 1691 ft 180 kts 193°
2026-04-12 12:05 63.02684 27.77955 650 ft 171 kts 156°
2026-04-12 12:05 63.01646 27.78913 324 ft 156 kts 156°
2026-04-12 12:05 63.00788 27.79733 1150 ft 117 kts 151°
2026-04-12 12:06 63.00326 27.80224 2282 ft 91 kts 153°
2026-04-12 12:06 62.99591 27.80994 2773 ft 135 kts 156°
2026-04-12 12:06 62.98775 27.81648 2778 ft 130 kts 120°
2026-04-12 12:06 62.99269 27.82330 1431 ft 168 kts 288°
2026-04-12 12:07 62.99968 27.80461 343 ft 163 kts 339°
2026-04-12 12:07 63.00904 27.79599 477 ft 149 kts 340°
2026-04-12 12:07 63.01952 27.78819 1487 ft 173 kts 341°
2026-04-12 12:07 63.02847 27.77386 2605 ft 184 kts 269°
2026-04-12 12:08 63.02335 27.74286 2420 ft 229 kts 248°
2026-04-12 12:08 63.01922 27.71128 2558 ft 211 kts 261°
2026-04-12 12:08 63.02238 27.68107 2747 ft 210 kts 306°
2026-04-12 12:08 63.03327 27.66102 2997 ft 202 kts 342°
2026-04-12 12:09 63.04626 27.66513 3030 ft 200 kts 42°
2026-04-12 12:09 63.05381 27.69259 2812 ft 221 kts 83°
2026-04-12 12:09 63.05449 27.72734 2669 ft 235 kts 92°
2026-04-12 12:09 63.04798 27.75761 2174 ft 227 kts 147°
2026-04-12 12:10 63.03498 27.77224 1306 ft 194 kts 156°
2026-04-12 12:10 63.02349 27.78255 606 ft 169 kts 157°
2026-04-12 12:10 63.01367 27.79180 317 ft 135 kts 157°
2026-04-12 12:10 63.00249 27.80209 415 ft 211 kts 158°
2026-04-12 12:11 62.98718 27.81614 1020 ft 258 kts 159°
2026-04-12 12:11 62.97619 27.82558 4312 ft 142 kts 119°
2026-04-12 12:11 62.97868 27.83076 2844 ft 197 kts 301°
2026-04-12 12:11 62.98936 27.81422 564 ft 202 kts 339°
2026-04-12 12:12 63.00063 27.80381 310 ft 152 kts 338°
2026-04-12 12:12 63.01084 27.79424 370 ft 190 kts 341°
2026-04-12 12:12 63.01948 27.79849 1267 ft 178 kts 84°
2026-04-12 12:12 63.02125 27.83040 1841 ft 231 kts 84°
2026-04-12 12:13 63.02728 27.86351 2987 ft 235 kts 39°
2026-04-12 12:13 63.04101 27.86468 3042 ft 206 kts 331°
2026-04-12 12:13 63.05313 27.85000 2978 ft 191 kts 333°
2026-04-12 12:13 63.06442 27.83523 2870 ft 195 kts 327°
2026-04-12 12:14 63.07513 27.81630 2780 ft 196 kts 320°
2026-04-12 12:14 63.08494 27.79556 2679 ft 198 kts 308°
2026-04-12 12:14 63.08761 27.76169 2748 ft 267 kts 253°
2026-04-12 12:14 63.07250 27.73696 2280 ft 328 kts 178°
2026-04-12 12:15 63.04867 27.75168 1098 ft 396 kts 158°
2026-04-12 12:15 63.02248 27.77761 469 ft 428 kts 157°
2026-04-12 12:15 62.99524 27.80166 873 ft 420 kts 159°
2026-04-12 12:15 62.97335 27.83458 2911 ft 379 kts 139°
2026-04-12 12:16 62.95425 27.87170 3684 ft 339 kts 133°
2026-04-12 12:16 62.96603 27.90226 2592 ft 385 kts 348°
2026-04-12 12:16 62.99073 27.87993 2390 ft 357 kts 337°
2026-04-12 12:16 63.01136 27.85769 2143 ft 314 kts 334°
2026-04-12 12:17 63.03056 27.83862 1553 ft 291 kts 337°
2026-04-12 12:17 63.04759 27.82089 1779 ft 250 kts 334°
2026-04-12 12:17 63.06122 27.80166 1984 ft 218 kts 315°
2026-04-12 12:17 63.07329 27.78466 2099 ft 206 kts 15°
2026-04-12 12:18 63.07734 27.81011 1960 ft 215 kts 121°
2026-04-12 12:18 63.06558 27.83443 1782 ft 246 kts 145°
2026-04-12 12:18 63.05106 27.85416 2031 ft 255 kts 150°
2026-04-12 12:18 63.03489 27.87372 1882 ft 275 kts 152°
2026-04-12 12:19 63.01855 27.89140 2000 ft 245 kts 155°
2026-04-12 12:19 63.00401 27.90614 2136 ft 212 kts 155°
2026-04-12 12:19 62.99141 27.91907 2220 ft 196 kts 154°
2026-04-12 12:19 62.97834 27.93278 2202 ft 225 kts 154°
2026-04-12 12:20 62.96397 27.94823 2313 ft 228 kts 154°
2026-04-12 12:20 62.94955 27.96478 2311 ft 235 kts 152°
2026-04-12 12:20 62.93509 27.98047 2500 ft 234 kts 154°
2026-04-12 12:20 62.92019 27.99574 2530 ft 238 kts 159°
2026-04-12 12:21 62.90426 28.00215 2899 ft 229 kts 177°
2026-04-12 12:21 62.88829 27.99774 2904 ft 239 kts 198°
2026-04-12 12:21 62.87622 27.97357 2959 ft 243 kts 249°
2026-04-12 12:21 62.87733 27.93833 3047 ft 243 kts 298°
2026-04-12 12:22 62.88854 27.90863 2898 ft 265 kts 322°
2026-04-12 12:22 62.90504 27.88739 2892 ft 289 kts 336°
2026-04-12 12:22 62.92433 27.87025 2979 ft 304 kts 340°
2026-04-12 12:22 62.94444 27.85383 3314 ft 328 kts 341°
2026-04-12 12:23 62.96706 27.83513 3607 ft 365 kts 340°
2026-04-12 12:23 62.99128 27.81311 3727 ft 394 kts 337°
2026-04-12 12:23 62.99370 27.83434 3403 ft 331 kts 148°
2026-04-12 12:23 62.97669 27.85619 2982 ft 246 kts 158°
2026-04-12 12:24 62.97031 27.83877 1746 ft 213 kts 306°
2026-04-12 12:24 62.98106 27.82176 877 ft 184 kts 337°
2026-04-12 12:24 62.99171 27.81197 464 ft 145 kts 339°
2026-04-12 12:24 63.00141 27.80309 567 ft 181 kts 339°
2026-04-12 12:25 63.01447 27.79080 1409 ft 226 kts 329°
2026-04-12 12:25 63.01699 27.75987 2114 ft 259 kts 239°
2026-04-12 12:25 63.00251 27.73170 2067 ft 291 kts 182°
2026-04-12 12:25 62.98513 27.74089 2054 ft 239 kts 161°
2026-04-12 12:26 62.97060 27.75190 2046 ft 204 kts 159°
2026-04-12 12:26 62.96037 27.76988 2022 ft 192 kts 112°
2026-04-12 12:26 62.96273 27.79883 1501 ft 208 kts 68°
2026-04-12 12:26 62.97113 27.82261 1228 ft 191 kts 26°
2026-04-12 12:27 62.98282 27.82050 758 ft 164 kts 337°
2026-04-12 12:27 62.99255 27.81115 391 ft 144 kts 339°
2026-04-12 12:27 63.00126 27.80327 311 ft 142 kts 339°
2026-04-12 12:27 63.01293 27.79241 379 ft 228 kts 338°
2026-04-12 12:28 63.02840 27.77780 1584 ft 236 kts 339°
2026-04-12 12:28 63.04073 27.76458 3042 ft 240 kts 334°
2026-04-12 12:28 63.05702 27.74522 3467 ft 292 kts 332°
2026-04-12 12:28 63.05247 27.74199 2736 ft 199 kts 125°
2026-04-12 12:29 63.04275 27.76363 1832 ft 212 kts 148°
2026-04-12 12:29 63.02984 27.77734 885 ft 194 kts 159°
2026-04-12 12:29 63.01867 27.78712 372 ft 158 kts 157°
2026-04-12 12:29 63.00956 27.79539 316 ft 149 kts 159°
2026-04-12 12:30 62.99855 27.80508 726 ft 186 kts 159°
2026-04-12 12:30 62.98589 27.81489 1881 ft 203 kts 160°
2026-04-12 12:30 62.97292 27.82512 3362 ft 211 kts 160°
2026-04-12 12:30 62.97084 27.84248 3321 ft 180 kts
2026-04-12 12:31 62.98068 27.82643 1451 ft 198 kts 321°
2026-04-12 12:31 62.99167 27.81161 536 ft 180 kts 341°
2026-04-12 12:31 63.00196 27.80254 307 ft 138 kts 338°
2026-04-12 12:31 63.01117 27.79412 318 ft 176 kts 339°
2026-04-12 12:32 63.02347 27.78661 1153 ft 199 kts 24°
2026-04-12 12:32 63.02682 27.80953 2481 ft 189 kts 131°
2026-04-12 12:32 63.01991 27.82136 2535 ft 195 kts 147°
2026-04-12 12:32 63.00373 27.84392 2481 ft 222 kts 148°
2026-04-12 12:33 62.99043 27.86287 2630 ft 233 kts 145°
2026-04-12 12:33 62.97734 27.88351 2969 ft 233 kts 143°
2026-04-12 12:33 62.96474 27.90657 3168 ft 240 kts 137°
2026-04-12 12:33 62.95270 27.93209 3510 ft 240 kts 136°
2026-04-12 12:34 62.94076 27.95846 3595 ft 245 kts 134°
2026-04-12 12:34 62.92916 27.98565 3520 ft 247 kts 132°
2026-04-12 12:34 62.91775 28.01354 3587 ft 245 kts 136°
2026-04-12 12:34 62.90422 28.03812 3424 ft 252 kts 143°
2026-04-12 12:35 62.88994 28.05966 3465 ft 249 kts 153°
2026-04-12 12:35 62.87247 28.07096 3482 ft 296 kts 174°
2026-04-12 12:35 62.85021 28.06620 3522 ft 350 kts 193°
2026-04-12 12:35 62.83088 28.04172 3466 ft 279 kts 230°
2026-04-12 12:36 62.82538 28.00750 3327 ft 216 kts 270°
2026-04-12 12:36 62.82780 27.97709 3298 ft 201 kts 295°
2026-04-12 12:36 62.83591 27.95128 3265 ft 214 kts 315°
2026-04-12 12:36 62.84766 27.93115 3322 ft 220 kts 331°
2026-04-12 12:37 62.86221 27.91610 3027 ft 240 kts 341°
2026-04-12 12:37 62.87812 27.90417 3077 ft 242 kts 347°
2026-04-12 12:37 62.89447 27.89620 3069 ft 246 kts 350°
2026-04-12 12:37 62.91124 27.88457 2770 ft 261 kts 341°
2026-04-12 12:38 62.92849 27.87005 2398 ft 272 kts 340°
2026-04-12 12:38 62.94569 27.85457 1866 ft 259 kts 339°
2026-04-12 12:38 62.96160 27.83997 1537 ft 244 kts 338°
2026-04-12 12:38 62.97896 27.82363 1388 ft 305 kts 338°
2026-04-12 12:39 62.99992 27.80419 1521 ft 354 kts 339°
2026-04-12 12:39 63.00560 27.81807 2155 ft 273 kts 144°
2026-04-12 12:39 62.99246 27.83918 1887 ft 208 kts 142°
2026-04-12 12:39 62.98037 27.84850 1672 ft 180 kts 205°
2026-04-12 12:40 62.97900 27.82658 1117 ft 172 kts 315°
2026-04-12 12:40 62.98947 27.81394 511 ft 175 kts 339°
2026-04-12 12:40 62.99999 27.80439 308 ft 147 kts 338°
2026-04-12 12:40 63.01074 27.79442 350 ft 211 kts 338°
2026-04-12 12:41 63.01553 27.79171 2755 ft 67 kts 91°
2026-04-12 12:41 63.01592 27.80660 2843 ft 137 kts 32°
2026-04-12 12:41 63.02524 27.80627 3149 ft 195 kts 301°
2026-04-12 12:41 63.02954 27.77113 3090 ft 278 kts 268°
2026-04-12 12:42 63.03022 27.72773 2807 ft 274 kts 286°
2026-04-12 12:42 63.05283 27.67845 2583 ft 210 kts 329°
2026-04-12 12:42 63.06770 27.66339 2928 ft 260 kts 15°
2026-04-12 12:43 63.07895 27.68920 2787 ft 202 kts 73°
2026-04-12 12:43 63.07922 27.71454 2287 ft 148 kts 108°
2026-04-12 12:43 63.07470 27.73025 2048 ft 105 kts 138°
2026-04-12 12:43 63.06916 27.73880 1719 ft 93 kts 153°
2026-04-12 12:44 63.06350 27.74443 1396 ft 89 kts 156°
2026-04-12 12:44 63.05806 27.74960 1015 ft 87 kts 155°
2026-04-12 12:44 63.05246 27.75527 735 ft 93 kts 154°
2026-04-12 12:44 63.04649 27.76161 782 ft 91 kts 155°
2026-04-12 12:45 63.04060 27.76659 639 ft 88 kts 159°
2026-04-12 12:45 63.03502 27.77212 579 ft 90 kts 153°
2026-04-12 12:45 63.02934 27.77709 537 ft 96 kts 158°
2026-04-12 12:45 63.02359 27.78249 405 ft 88 kts 154°
2026-04-12 12:46 63.01798 27.78777 329 ft 95 kts 156°
2026-04-12 12:46 63.01127 27.79459 1006 ft 116 kts 145°
2026-04-12 12:46 63.01093 27.81125 1528 ft 169 kts 64°
2026-04-12 12:46 63.01923 27.83773 1777 ft 246 kts 50°
2026-04-12 12:47 63.03425 27.84674 2254 ft 223 kts 349°
2026-04-12 12:47 63.04877 27.83964 2364 ft 205 kts 350°
2026-04-12 12:47 63.06141 27.83104 2712 ft 186 kts 341°
2026-04-12 12:47 63.07325 27.81953 2728 ft 186 kts 335°
2026-04-12 12:48 63.08478 27.80645 2726 ft 188 kts 332°
2026-04-12 12:48 63.09615 27.79151 2732 ft 190 kts 329°
2026-04-12 12:48 63.10650 27.77461 2861 ft 183 kts 304°
2026-04-12 12:48 63.10739 27.74808 2719 ft 189 kts 245°
2026-04-12 12:49 63.09761 27.72810 2391 ft 198 kts 200°
2026-04-12 12:49 63.08405 27.72456 2269 ft 197 kts 165°
2026-04-12 12:49 63.07180 27.73842 1842 ft 214 kts 153°
2026-04-12 12:49 63.05832 27.75141 1491 ft 203 kts 158°
2026-04-12 12:50 63.04615 27.76153 1185 ft 169 kts 158°
2026-04-12 12:50 63.03601 27.77100 819 ft 150 kts 156°
2026-04-12 12:50 63.02681 27.77961 531 ft 143 kts 157°
2026-04-12 12:50 63.01750 27.78812 353 ft 146 kts 157°
2026-04-12 12:51 63.00867 27.79640 325 ft 146 kts 157°
2026-04-12 12:51 62.99797 27.80651 1019 ft 194 kts 156°
2026-04-12 12:51 62.98460 27.81903 2170 ft 226 kts 170°
2026-04-12 12:51 62.97889 27.79588 3077 ft 254 kts 314°
2026-04-12 12:52 62.99294 27.77350 3164 ft 234 kts 327°
2026-04-12 12:52 63.00581 27.75553 3094 ft 202 kts 330°
2026-04-12 12:52 63.01717 27.73980 2673 ft 205 kts 330°
2026-04-12 12:52 63.02952 27.73399 2677 ft 171 kts 25°
2026-04-12 12:53 63.03649 27.75291 2261 ft 168 kts 85°
2026-04-12 12:53 63.03170 27.77322 1447 ft 164 kts 152°
2026-04-12 12:53 63.02160 27.78434 541 ft 160 kts 156°
2026-04-12 12:53 63.01234 27.79297 319 ft 130 kts 158°
2026-04-12 12:54 63.00241 27.80252 926 ft 176 kts 155°
2026-04-12 12:54 62.99124 27.81153 2430 ft 184 kts 160°
2026-04-12 12:54 62.98280 27.80796 3022 ft 154 kts 300°
2026-04-12 12:54 62.99160 27.81195 707 ft 182 kts 343°
2026-04-12 12:55 63.00190 27.80263 309 ft 139 kts 338°
2026-04-12 12:55 63.01131 27.79393 352 ft 187 kts 338°
2026-04-12 12:55 63.02615 27.78004 739 ft 259 kts 338°
2026-04-12 12:55 63.04215 27.76683 2553 ft 240 kts
2026-04-12 12:56 63.05212 27.75990 2752 ft 177 kts 246°
2026-04-12 12:56 63.04217 27.76260 1421 ft 192 kts 148°
2026-04-12 12:56 63.03033 27.77667 696 ft 197 kts 158°
2026-04-12 12:56 63.01820 27.78748 350 ft 171 kts 157°
2026-04-12 12:57 63.00852 27.79650 427 ft 159 kts 157°
2026-04-12 12:57 62.99677 27.80746 1258 ft 209 kts 156°
2026-04-12 12:57 62.98527 27.81868 3391 ft 185 kts 155°
2026-04-12 12:57 62.98378 27.82529 2004 ft 200 kts 300°
2026-04-12 12:58 62.99430 27.80952 359 ft 183 kts 339°
2026-04-12 12:58 63.00425 27.80054 307 ft 133 kts 336°
2026-04-12 12:58 63.01406 27.79139 319 ft 189 kts 339°
2026-04-12 12:58 63.02623 27.78205 1219 ft 192 kts 40°
2026-04-12 12:59 63.03134 27.81321 1503 ft 257 kts 78°
2026-04-12 12:59 63.04277 27.84515 2072 ft 306 kts 14°
2026-04-12 12:59 63.06483 27.84326 2331 ft 303 kts 357°
2026-04-12 12:59 63.08367 27.83909 2540 ft 248 kts 355°
2026-04-12 13:00 63.10012 27.83464 2310 ft 227 kts 354°
2026-04-12 13:00 63.11462 27.82921 2545 ft 202 kts 351°
2026-04-12 13:00 63.12542 27.81415 2579 ft 187 kts 283°
2026-04-12 13:00 63.11967 27.79179 2254 ft 184 kts 203°
2026-04-12 13:01 63.10707 27.78183 2000 ft 224 kts 199°
2026-04-12 13:01 63.08978 27.76773 2037 ft 301 kts 200°
2026-04-12 13:01 63.06818 27.75194 2076 ft 352 kts 189°
2026-04-12 13:01 63.04244 27.75990 1301 ft 406 kts 159°
2026-04-12 13:02 63.01526 27.78440 415 ft 440 kts 158°
2026-04-12 13:02 62.98747 27.80624 1086 ft 422 kts 162°
2026-04-12 13:02 62.96013 27.82441 2335 ft 405 kts 165°
2026-04-12 13:02 62.93345 27.83945 3753 ft 385 kts 162°
2026-04-12 13:03 62.92074 27.87958 3451 ft 390 kts 63°
2026-04-12 13:03 62.94545 27.89503 3311 ft 416 kts 348°
2026-04-12 13:03 62.97379 27.87607 3323 ft 431 kts 344°
2026-04-12 13:03 63.00240 27.85728 3544 ft 435 kts 345°
2026-04-12 13:04 63.03147 27.83973 4085 ft 428 kts 347°
2026-04-12 13:04 63.05669 27.82548 4018 ft 337 kts 347°
2026-04-12 13:04 63.07637 27.80829 3709 ft 283 kts 315°
2026-04-12 13:04 63.07365 27.77328 2577 ft 257 kts 229°
2026-04-12 13:05 63.06059 27.75044 2017 ft 227 kts 182°
2026-04-12 13:05 63.04804 27.74268 2248 ft 248 kts 292°
2026-04-12 13:05 63.05209 27.75173 2243 ft 244 kts 191°
2026-04-12 13:05 63.05656 27.73745 2507 ft 246 kts 66°
2026-04-12 13:06 63.05428 27.76811 2648 ft 237 kts 179°
2026-04-12 13:06 63.03923 27.76883 1580 ft 205 kts 161°
2026-04-12 13:06 63.02755 27.77876 667 ft 169 kts 157°
2026-04-12 13:06 63.01730 27.78843 337 ft 149 kts 153°
2026-04-12 13:07 63.00887 27.79624 328 ft 112 kts 157°
2026-04-12 13:07 63.00168 27.80275 360 ft 135 kts 157°
2026-04-12 13:07 62.99148 27.81216 1397 ft 172 kts 156°
2026-04-12 13:07 62.98084 27.81850 2846 ft 181 kts 219°
2026-04-12 13:08 62.98192 27.79224 3394 ft 200 kts 318°
2026-04-12 13:08 62.99406 27.77475 3154 ft 221 kts 332°
2026-04-12 13:08 63.00784 27.75772 3183 ft 229 kts 332°
2026-04-12 13:08 63.02203 27.74003 3129 ft 241 kts 335°
2026-04-12 13:09 63.03639 27.73315 3049 ft 216 kts 314°
2026-04-12 13:09 63.04676 27.73436 2502 ft 181 kts 80°
2026-04-12 13:09 63.04270 27.75909 1665 ft 175 kts 131°
2026-04-12 13:09 63.03346 27.77357 930 ft 163 kts 156°
2026-04-12 13:10 63.02358 27.78242 464 ft 144 kts 156°
2026-04-12 13:10 63.01514 27.79034 315 ft 121 kts 157°
2026-04-12 13:10 63.00460 27.80026 472 ft 212 kts 157°
2026-04-12 13:10 62.99009 27.81824 1104 ft 266 kts 119°
2026-04-12 13:11 63.00089 27.84004 1671 ft 305 kts 351°
2026-04-12 13:11 63.01981 27.82857 1777 ft 252 kts 344°
2026-04-12 13:11 63.03473 27.81721 1910 ft 215 kts 341°
2026-04-12 13:11 63.04784 27.80574 2008 ft 186 kts 341°
2026-04-12 13:12 63.05852 27.79384 2104 ft 164 kts 313°
2026-04-12 13:12 63.06136 27.77050 2064 ft 196 kts 254°
2026-04-12 13:12 63.04913 27.75791 1880 ft 271 kts 156°
2026-04-12 13:12 63.02951 27.77725 620 ft 354 kts 158°
2026-04-12 13:13 63.00534 27.79926 455 ft 394 kts 158°
2026-04-12 13:13 62.98040 27.82288 1873 ft 380 kts 156°
2026-04-12 13:13 62.96727 27.85398 5082 ft 311 kts 73°
2026-04-12 13:13 62.98448 27.88578 5108 ft 361 kts 31°
2026-04-12 13:14 63.00722 27.91372 5306 ft 389 kts 31°
2026-04-12 13:14 63.03146 27.94323 5219 ft 414 kts 24°
2026-04-12 13:14 63.05866 27.92788 4193 ft 452 kts 321°
2026-04-12 13:14 63.08190 27.88375 4557 ft 449 kts 322°
2026-04-12 13:15 63.10670 27.84050 4325 ft 457 kts 324°
2026-04-12 13:15 63.13242 27.79899 4131 ft 462 kts 326°
2026-04-12 13:15 63.15985 27.76151 3750 ft 467 kts 332°
2026-04-12 13:15 63.18486 27.72056 3736 ft 452 kts 275°
2026-04-12 13:16 63.16217 27.69163 3250 ft 439 kts 169°
2026-04-12 13:16 63.13345 27.69508 2931 ft 362 kts 180°
2026-04-12 13:16 63.11240 27.69871 2637 ft 266 kts 163°
2026-04-12 13:16 63.09672 27.71362 2132 ft 232 kts 155°
2026-04-12 13:17 63.08276 27.72693 1818 ft 201 kts 156°
2026-04-12 13:17 63.07068 27.73850 1397 ft 186 kts 156°
2026-04-12 13:17 63.05934 27.74952 1028 ft 171 kts 156°
2026-04-12 13:17 63.04903 27.75933 782 ft 152 kts 157°
2026-04-12 13:18 63.03985 27.76772 592 ft 134 kts 157°
2026-04-12 13:18 63.03209 27.77483 538 ft 103 kts 156°
2026-04-12 13:18 63.02296 27.78305 271 ft 13 kts 156°
2026-04-12 13:19 63.02250 27.78350 271 ft 4 kts 151°